createdAt,value
2019-04-06T00:04:15.814Z,15.70
2019-04-06T00:09:19.740Z,15.60
2019-04-06T00:14:23.626Z,15.50
2019-04-06T00:19:27.533Z,15.40
2019-04-06T00:24:31.414Z,15.30
2019-04-06T00:29:35.357Z,15.30
2019-04-06T00:34:39.436Z,15.30
2019-04-06T00:39:43.406Z,15.30
2019-04-06T00:44:47.295Z,15.30
2019-04-06T00:49:51.171Z,15.20
2019-04-06T00:54:55.073Z,15.20
2019-04-06T00:59:58.908Z,15.10
2019-04-06T01:05:02.803Z,15.20
2019-04-06T01:10:06.917Z,15.10
2019-04-06T01:15:11.021Z,15.00
2019-04-06T01:20:15.038Z,14.90
2019-04-06T01:25:19.944Z,14.90
2019-04-06T01:30:23.852Z,14.90
2019-04-06T01:35:27.765Z,14.80
2019-04-06T01:40:31.617Z,14.70
2019-04-06T01:45:35.526Z,14.60
2019-04-06T01:50:39.443Z,14.60
2019-04-06T01:55:43.344Z,14.60
2019-04-06T02:00:55.043Z,14.70
2019-04-06T02:05:58.967Z,14.50
2019-04-06T02:11:02.858Z,14.50
2019-04-06T02:16:06.790Z,14.50
2019-04-06T02:21:10.701Z,14.50
2019-04-06T02:26:14.627Z,14.40
2019-04-06T02:31:22.919Z,14.30
2019-04-06T02:36:34.248Z,14.30
2019-04-06T02:41:48.729Z,14.20
2019-04-06T02:46:52.634Z,14.20
2019-04-06T02:51:56.552Z,14.10
2019-04-06T02:57:00.398Z,14.10
2019-04-06T03:02:04.304Z,14.00
2019-04-06T03:07:08.215Z,14.00
2019-04-06T03:12:13.168Z,13.90
2019-04-06T03:17:17.094Z,13.80
2019-04-06T03:22:20.940Z,13.90
2019-04-06T03:27:25.973Z,13.70
2019-04-06T03:32:30.327Z,13.70
2019-04-06T03:37:34.400Z,13.60
2019-04-06T03:42:38.301Z,13.50
2019-04-06T03:47:42.146Z,13.50
2019-04-06T03:52:46.059Z,13.40
2019-04-06T03:57:49.860Z,13.30
2019-04-06T04:02:53.724Z,13.30
2019-04-06T04:07:57.783Z,13.30
2019-04-06T04:13:01.709Z,13.40
2019-04-06T04:18:05.864Z,13.40
2019-04-06T04:23:10.043Z,13.30
2019-04-06T04:28:13.920Z,13.30
2019-04-06T04:33:17.803Z,13.30
2019-04-06T04:38:21.675Z,13.20
2019-04-06T04:43:25.690Z,13.10
2019-04-06T04:48:29.617Z,13.20
2019-04-06T04:53:33.498Z,13.20
2019-04-06T04:58:37.374Z,13.20
2019-04-06T05:03:41.241Z,13.10
2019-04-06T05:08:45.163Z,13.20
2019-04-06T05:13:49.032Z,13.30
2019-04-06T05:18:52.922Z,13.30
2019-04-06T05:23:56.819Z,13.30
2019-04-06T05:29:00.686Z,13.30
2019-04-06T05:34:04.695Z,13.30
2019-04-06T05:39:08.586Z,13.40
2019-04-06T05:44:12.387Z,13.50
2019-04-06T05:49:16.358Z,13.60
2019-04-06T05:54:20.230Z,13.60
2019-04-06T05:59:24.104Z,13.70
2019-04-06T06:04:28.114Z,13.80
2019-04-06T06:09:32.182Z,13.90
2019-04-06T06:14:36.410Z,13.90
2019-04-06T06:19:40.432Z,14.00
2019-04-06T06:24:44.313Z,14.20
2019-04-06T06:29:48.205Z,14.30
2019-04-06T06:34:52.071Z,14.30
2019-04-06T06:39:55.994Z,14.50
2019-04-06T06:45:00.054Z,14.60
2019-04-06T06:50:06.244Z,14.70
2019-04-06T06:55:10.303Z,14.80
2019-04-06T07:00:14.516Z,14.80
2019-04-06T07:05:19.795Z,14.90
2019-04-06T07:10:23.729Z,15.10
2019-04-06T07:15:27.590Z,15.40
2019-04-06T07:20:31.578Z,15.60
2019-04-06T07:25:35.480Z,16.00
2019-04-06T07:30:39.418Z,16.40
2019-04-06T07:35:43.520Z,16.90
2019-04-06T07:40:47.780Z,17.60
2019-04-06T07:45:51.863Z,18.60
2019-04-06T07:50:56.120Z,19.40
2019-04-06T07:56:00.038Z,20.10
2019-04-06T08:01:04.971Z,20.50
2019-04-06T08:06:08.951Z,21.20
2019-04-06T08:11:12.993Z,21.70
2019-04-06T08:16:16.881Z,22.10
2019-04-06T08:21:20.919Z,22.50
2019-04-06T08:26:25.156Z,22.80
2019-04-06T08:31:29.205Z,23.20
2019-04-06T08:36:33.418Z,23.60
2019-04-06T08:41:37.184Z,24.00
2019-04-06T08:46:41.116Z,24.50
2019-04-06T08:51:45.363Z,24.70
2019-04-06T08:56:49.563Z,25.10
2019-04-06T09:01:53.511Z,25.60
2019-04-06T09:06:57.457Z,25.80
2019-04-06T09:12:01.412Z,26.10
2019-04-06T09:17:05.649Z,26.50
2019-04-06T09:22:09.564Z,26.80
2019-04-06T09:27:13.509Z,27.10
2019-04-06T09:32:17.625Z,27.40
2019-04-06T09:37:22.729Z,27.70
2019-04-06T09:42:26.814Z,28.20
2019-04-06T09:47:32.407Z,28.30
2019-04-06T09:52:38.280Z,28.50
2019-04-06T09:57:52.931Z,28.60
2019-04-06T10:03:13.773Z,29.20
2019-04-06T10:08:28.151Z,29.30
2019-04-06T10:13:46.610Z,29.60
2019-04-06T10:18:54.849Z,29.70
2019-04-06T10:24:13.121Z,29.90
2019-04-06T10:29:24.819Z,29.90
2019-04-06T10:34:36.323Z,30.00
2019-04-06T10:39:51.291Z,30.30
2019-04-06T10:44:59.656Z,30.10
2019-04-06T10:50:08.031Z,29.90
2019-04-06T10:55:16.483Z,30.00
2019-04-06T11:00:22.083Z,29.70
2019-04-06T11:05:45.801Z,29.80
2019-04-06T11:11:07.789Z,29.80
2019-04-06T11:16:13.554Z,29.70
2019-04-06T11:21:35.535Z,29.60
2019-04-06T11:26:56.232Z,29.90
2019-04-06T11:32:07.706Z,29.90
2019-04-06T11:37:18.943Z,29.60
2019-04-06T11:42:30.297Z,29.50
2019-04-06T11:47:39.023Z,29.60
2019-04-06T11:52:44.767Z,29.60
2019-04-06T11:57:53.401Z,29.10
2019-04-06T12:03:17.187Z,28.80
2019-04-06T12:08:31.463Z,28.60
2019-04-06T12:13:48.694Z,28.40
2019-04-06T12:18:59.777Z,27.70
2019-04-06T12:24:07.993Z,26.90
2019-04-06T12:29:16.940Z,26.40
2019-04-06T12:34:39.331Z,26.10
2019-04-06T12:39:53.398Z,26.00
2019-04-06T12:44:54.466Z,25.70
2019-04-06T12:50:16.513Z,25.20
2019-04-06T12:55:40.508Z,24.50
2019-04-06T13:00:52.437Z,24.00
2019-04-06T13:05:54.514Z,23.60
2019-04-06T13:11:00.067Z,23.40
2019-04-06T13:16:21.919Z,23.20
2019-04-06T13:21:33.505Z,23.20
2019-04-06T13:26:45.127Z,23.40
2019-04-06T13:31:50.793Z,23.40
2019-04-06T13:37:02.287Z,23.50
2019-04-06T13:42:23.539Z,23.10
2019-04-06T13:47:29.608Z,22.90
2019-04-06T13:52:54.032Z,23.00
2019-04-06T13:58:20.899Z,23.00
2019-04-06T14:03:41.703Z,23.10
2019-04-06T14:08:52.996Z,23.00
2019-04-06T14:14:10.375Z,23.20
2019-04-06T14:19:33.033Z,23.20
2019-04-06T14:24:55.575Z,23.20
2019-04-06T14:30:09.584Z,23.00
2019-04-06T14:35:20.912Z,23.10
2019-04-06T14:40:32.090Z,22.80
2019-04-06T14:45:37.847Z,22.50
2019-04-06T14:50:43.461Z,22.30
2019-04-06T14:55:51.536Z,22.20
2019-04-06T15:00:56.997Z,21.90
2019-04-06T15:06:14.256Z,21.60
2019-04-06T15:11:22.716Z,21.50
2019-04-06T15:16:45.160Z,21.40
2019-04-06T15:21:54.915Z,21.40
2019-04-06T15:27:03.329Z,21.30
2019-04-06T15:32:08.882Z,21.30
2019-04-06T15:37:30.473Z,21.40
2019-04-06T15:42:42.101Z,21.30
2019-04-06T15:48:05.590Z,21.30
2019-04-06T15:53:11.057Z,21.10
2019-04-06T15:58:17.068Z,21.00
2019-04-06T16:03:39.439Z,20.80
2019-04-06T16:08:56.508Z,20.60
2019-04-06T16:14:17.787Z,20.40
2019-04-06T16:19:29.572Z,20.30
2019-04-06T16:24:37.796Z,20.20
2019-04-06T16:29:49.264Z,20.20
2019-04-06T16:35:13.294Z,20.10
2019-04-06T16:40:30.761Z,20.00
2019-04-06T16:45:42.768Z,19.90
2019-04-06T16:51:03.107Z,19.80
2019-04-06T16:56:25.409Z,19.70
2019-04-06T17:01:39.962Z,19.60
2019-04-06T17:07:03.693Z,19.50
2019-04-06T17:12:09.528Z,19.50
2019-04-06T17:17:17.836Z,19.40
2019-04-06T17:22:39.526Z,19.30
2019-04-06T17:27:45.297Z,19.30
2019-04-06T17:33:02.803Z,19.10
2019-04-06T17:38:11.064Z,19.00
2019-04-06T17:43:33.750Z,18.90
2019-04-06T17:48:55.809Z,18.80
2019-04-06T17:54:01.594Z,18.70
2019-04-06T17:59:23.352Z,18.70
2019-04-06T18:04:45.477Z,18.60
2019-04-06T18:09:56.683Z,18.50
2019-04-06T18:15:00.922Z,18.30
2019-04-06T18:20:07.439Z,18.20
2019-04-06T18:25:11.327Z,18.20
2019-04-06T18:30:15.674Z,18.10
2019-04-06T18:35:19.666Z,18.00
2019-04-06T18:40:25.019Z,18.00
2019-04-06T18:45:30.273Z,17.90
2019-04-06T18:50:37.691Z,17.90
2019-04-06T18:55:40.097Z,17.80
2019-04-06T19:00:44.522Z,17.80
2019-04-06T19:05:50.818Z,17.40
2019-04-06T19:10:56.050Z,17.30
2019-04-06T19:16:06.296Z,17.10
2019-04-06T19:21:23.055Z,16.90
2019-04-06T19:26:26.901Z,16.60
2019-04-06T19:31:30.765Z,16.40
2019-04-06T19:36:34.579Z,16.50
2019-04-06T19:41:38.453Z,16.60
2019-04-06T19:46:42.388Z,16.70
2019-04-06T19:51:46.573Z,16.60
2019-04-06T19:56:50.548Z,16.70
2019-04-06T20:01:54.778Z,16.50
2019-04-06T20:06:58.688Z,16.50
2019-04-06T20:12:05.675Z,16.60
2019-04-06T20:17:08.455Z,16.50
2019-04-06T20:22:12.696Z,16.50
2019-04-06T20:27:16.610Z,16.50
2019-04-06T20:32:20.495Z,16.50
2019-04-06T20:37:24.365Z,16.40
2019-04-06T20:42:28.281Z,16.20
2019-04-06T20:47:32.177Z,16.20
2019-04-06T20:52:36.117Z,16.20
2019-04-06T20:57:40.473Z,16.10
2019-04-06T21:02:45.159Z,16.00
2019-04-06T21:07:49.521Z,15.90
2019-04-06T21:12:53.972Z,15.80
2019-04-06T21:17:58.039Z,15.80
2019-04-06T21:23:05.084Z,15.80
2019-04-06T21:28:14.376Z,15.80
2019-04-06T21:33:18.604Z,15.60
2019-04-06T21:38:26.198Z,15.60
2019-04-06T21:43:31.086Z,15.60
2019-04-06T21:48:43.390Z,15.50
2019-04-06T21:53:47.950Z,15.40
2019-04-06T21:58:52.036Z,15.30
2019-04-06T22:03:55.940Z,15.40
2019-04-06T22:09:00.377Z,15.20
2019-04-06T22:14:04.572Z,14.90
2019-04-06T22:19:09.422Z,14.70
2019-04-06T22:24:14.991Z,14.70
2019-04-06T22:29:19.422Z,14.50
2019-04-06T22:34:34.753Z,14.50
2019-04-06T22:39:30.336Z,14.40
2019-04-06T22:44:34.758Z,14.30
2019-04-06T22:49:38.791Z,14.30
2019-04-06T22:54:42.700Z,14.30
2019-04-06T22:59:46.568Z,14.10
2019-04-06T23:04:54.931Z,14.00
2019-04-06T23:09:58.810Z,14.10
2019-04-06T23:15:02.694Z,14.20
2019-04-06T23:20:06.676Z,14.20
2019-04-06T23:25:10.943Z,14.10
2019-04-06T23:30:14.910Z,14.10
2019-04-06T23:35:18.775Z,14.10
2019-04-06T23:40:22.675Z,14.00
2019-04-06T23:45:26.528Z,14.00
2019-04-06T23:50:30.330Z,14.10
2019-04-06T23:55:34.193Z,14.00
